createdAt,value
2022-10-20T00:05:00.596Z,93935.47
2022-10-20T00:10:04.353Z,93948.38
2022-10-20T00:15:08.436Z,93939.78
2022-10-20T00:20:12.709Z,93941.00
2022-10-20T00:25:15.805Z,93940.69
2022-10-20T00:30:21.419Z,93936.19
2022-10-20T00:35:27.015Z,93934.78
2022-10-20T00:40:30.507Z,93939.94
2022-10-20T00:45:34.028Z,93939.59
2022-10-20T00:50:43.657Z,93940.78
2022-10-20T00:55:49.606Z,93939.28
2022-10-20T01:00:57.700Z,93935.69
2022-10-20T01:06:00.730Z,93932.13
2022-10-20T01:11:12.480Z,93923.50
2022-10-20T01:16:36.208Z,93924.69
2022-10-20T01:22:08.876Z,93934.59
2022-10-20T01:27:33.356Z,93934.63
2022-10-20T01:33:05.315Z,93930.63
2022-10-20T01:38:26.853Z,93927.00
2022-10-20T01:43:34.663Z,93930.84
2022-10-20T01:48:40.733Z,93927.22
2022-10-20T01:53:43.640Z,93936.53
2022-10-20T01:58:58.893Z,93925.59
2022-10-20T02:04:03.468Z,93922.50
2022-10-20T02:09:13.880Z,93925.59
2022-10-20T02:14:19.188Z,93928.28
2022-10-20T02:19:25.619Z,93923.06
2022-10-20T02:24:34.406Z,93932.75
2022-10-20T02:29:43.622Z,93939.78
2022-10-20T02:34:46.650Z,93935.44
2022-10-20T02:39:50.338Z,93929.88
2022-10-20T02:44:53.820Z,93928.31
2022-10-20T02:49:56.823Z,93922.81
2022-10-20T02:55:00.608Z,93936.06
2022-10-20T03:00:05.642Z,93923.84
2022-10-20T03:05:09.216Z,93927.63
2022-10-20T03:10:13.181Z,93926.78
2022-10-20T03:15:16.980Z,93934.09
2022-10-20T03:20:20.710Z,93935.19
2022-10-20T03:25:26.273Z,93931.91
2022-10-20T03:30:29.854Z,93936.38
2022-10-20T03:35:33.454Z,93928.03
2022-10-20T03:40:36.767Z,93935.72
2022-10-20T03:45:40.519Z,93933.75
2022-10-20T03:50:43.979Z,93938.84
2022-10-20T03:55:47.614Z,93937.09
2022-10-20T04:00:51.236Z,93936.59
2022-10-20T04:05:54.198Z,93933.84
2022-10-20T04:10:58.845Z,93935.03
2022-10-20T04:16:01.864Z,93925.16
2022-10-20T04:21:05.751Z,93935.03
2022-10-20T04:26:11.287Z,93933.16
2022-10-20T04:31:14.932Z,93923.38
2022-10-20T04:36:18.039Z,93925.19
2022-10-20T04:41:21.510Z,93926.59
2022-10-20T04:46:26.083Z,93927.22
2022-10-20T04:51:29.528Z,93927.53
2022-10-20T04:56:32.891Z,93926.69
2022-10-20T05:01:35.898Z,93931.63
2022-10-20T05:06:39.688Z,93931.97
2022-10-20T05:11:44.330Z,93939.50
2022-10-20T05:16:47.654Z,93951.59
2022-10-20T05:21:50.961Z,93956.34
2022-10-20T05:26:54.582Z,93955.28
2022-10-20T05:31:57.800Z,93967.63
2022-10-20T05:37:00.746Z,93974.44
2022-10-20T05:42:03.759Z,93971.88
2022-10-20T05:47:07.156Z,93965.81
2022-10-20T05:52:10.117Z,93983.75
2022-10-20T05:57:13.776Z,93977.91
2022-10-20T06:02:17.331Z,93975.19
2022-10-20T06:07:22.985Z,93984.22
2022-10-20T06:12:26.859Z,93989.09
2022-10-20T06:17:31.099Z,93974.22
2022-10-20T06:22:35.472Z,93966.03
2022-10-20T06:27:39.284Z,93982.16
2022-10-20T06:32:43.598Z,93980.09
2022-10-20T06:37:46.774Z,93983.09
2022-10-20T06:42:50.360Z,93984.81
2022-10-20T06:47:53.785Z,93989.06
2022-10-20T06:52:56.821Z,93984.88
2022-10-20T06:58:00.320Z,93994.06
2022-10-20T07:03:03.941Z,93997.59
2022-10-20T07:08:07.344Z,94000.94
2022-10-20T07:13:12.782Z,93998.13
2022-10-20T07:18:15.830Z,93999.19
2022-10-20T07:23:19.656Z,94004.38
2022-10-20T07:28:22.658Z,94009.66
2022-10-20T07:33:26.380Z,94018.13
2022-10-20T07:38:29.956Z,94010.88
2022-10-20T07:43:33.025Z,94007.03
2022-10-20T07:48:36.940Z,94024.91
2022-10-20T07:53:40.006Z,94023.22
2022-10-20T07:58:43.936Z,94018.88
2022-10-20T08:03:47.521Z,94022.22
2022-10-20T08:08:50.750Z,94025.25
2022-10-20T08:13:53.722Z,94033.28
2022-10-20T08:24:17.407Z,94039.53
2022-10-20T08:29:20.514Z,94047.22
2022-10-20T08:34:24.048Z,94048.34
2022-10-20T08:39:27.079Z,94047.63
2022-10-20T08:44:33.189Z,94042.84
2022-10-20T08:49:36.523Z,94039.19
2022-10-20T08:54:39.511Z,94046.75
2022-10-20T08:59:43.281Z,94057.56
2022-10-20T09:04:54.788Z,94051.28
2022-10-20T09:10:12.798Z,94047.91
2022-10-20T09:15:18.512Z,94054.22
2022-10-20T09:20:26.873Z,94049.28
2022-10-20T09:25:30.542Z,94045.69
2022-10-20T09:30:35.656Z,94052.31
2022-10-20T09:35:40.027Z,94051.22
2022-10-20T09:41:20.393Z,94044.88
2022-10-20T09:46:26.959Z,94056.91
2022-10-20T09:51:31.548Z,94056.19
2022-10-20T09:56:37.571Z,94048.53
2022-10-20T10:02:16.213Z,94056.06
2022-10-20T10:07:28.275Z,94054.66
2022-10-20T10:12:33.789Z,94055.59
2022-10-20T10:17:40.062Z,94046.75
2022-10-20T10:22:44.668Z,94060.94
2022-10-20T10:28:00.678Z,94054.31
2022-10-20T10:33:24.460Z,94039.22
2022-10-20T10:38:29.187Z,94047.00
2022-10-20T10:43:44.969Z,94037.78
2022-10-20T10:49:15.766Z,94039.56
2022-10-20T10:54:51.123Z,94034.50
2022-10-20T10:59:55.666Z,94031.94
2022-10-20T11:05:05.452Z,94027.00
2022-10-20T11:10:27.638Z,94028.63
2022-10-20T11:15:57.244Z,94014.97
2022-10-20T11:21:19.293Z,94019.97
2022-10-20T11:26:33.811Z,94015.06
2022-10-20T11:31:46.017Z,94008.94
2022-10-20T11:36:58.118Z,94002.91
2022-10-20T11:42:14.124Z,93995.16
2022-10-20T11:47:39.171Z,93984.53
2022-10-20T11:53:07.995Z,93984.06
2022-10-20T11:58:22.865Z,93985.81
2022-10-20T12:04:17.822Z,93981.44
2022-10-20T12:09:45.143Z,93979.06
2022-10-20T12:15:00.923Z,93978.28
2022-10-20T12:20:23.043Z,93969.53
2022-10-20T12:25:26.112Z,93975.31
2022-10-20T12:30:37.901Z,93965.66
2022-10-20T12:36:01.169Z,93977.25
2022-10-20T12:41:07.327Z,93976.22
2022-10-20T12:46:17.329Z,93964.34
2022-10-20T12:51:30.862Z,93962.34
2022-10-20T12:56:40.125Z,93959.78
2022-10-20T13:02:22.299Z,93968.47
2022-10-20T13:08:33.808Z,93963.84
2022-10-20T13:13:46.367Z,93953.09
2022-10-20T13:18:52.979Z,93953.34
2022-10-20T13:24:05.408Z,93956.84
2022-10-20T13:29:23.160Z,93963.97
2022-10-20T13:34:54.987Z,93958.34
2022-10-20T13:40:20.015Z,93948.59
2022-10-20T13:45:27.367Z,93956.72
2022-10-20T13:50:37.456Z,93951.38
2022-10-20T13:55:57.308Z,93952.97
2022-10-20T14:01:02.069Z,93967.34
2022-10-20T14:06:06.157Z,93971.22
2022-10-20T14:11:11.476Z,93981.38
2022-10-20T14:16:21.665Z,93982.41
2022-10-20T14:21:28.855Z,93980.28
2022-10-20T14:26:33.405Z,93993.25
2022-10-20T14:31:36.930Z,93985.72
2022-10-20T14:36:45.211Z,93986.22
2022-10-20T14:41:49.419Z,93999.59
2022-10-20T14:46:59.276Z,93999.59
2022-10-20T14:52:05.521Z,94003.66
2022-10-20T14:57:12.759Z,94002.00
2022-10-20T15:02:20.891Z,94000.09
2022-10-20T15:07:32.570Z,94002.09
2022-10-20T15:12:49.420Z,93999.97
2022-10-20T15:18:04.942Z,94000.22
2022-10-20T15:23:13.905Z,94004.53
2022-10-20T15:28:30.901Z,94009.13
2022-10-20T15:33:34.473Z,94018.06
2022-10-20T15:38:37.986Z,94012.84
2022-10-20T15:43:41.247Z,94012.81
2022-10-20T15:48:45.120Z,94014.31
2022-10-20T15:53:50.157Z,94012.16
2022-10-20T15:58:53.866Z,94012.44
2022-10-20T16:03:58.012Z,94012.00
2022-10-20T16:09:01.317Z,94025.53
2022-10-20T16:14:06.414Z,94035.63
2022-10-20T16:19:10.449Z,94037.03
2022-10-20T16:24:14.123Z,94039.09
2022-10-20T16:29:18.500Z,94045.03
2022-10-20T16:34:22.725Z,94051.41
2022-10-20T16:39:26.807Z,94046.28
2022-10-20T16:44:31.364Z,94050.22
2022-10-20T16:49:35.790Z,94053.59
2022-10-20T16:59:51.008Z,94053.22
2022-10-20T17:04:54.741Z,94061.34
2022-10-20T17:09:58.619Z,94062.31
2022-10-20T17:15:02.095Z,94061.97
2022-10-20T17:20:06.236Z,94071.72
2022-10-20T17:25:10.170Z,94071.50
2022-10-20T17:30:14.716Z,94082.94
2022-10-20T17:35:18.271Z,94087.25
2022-10-20T17:40:22.477Z,94077.53
2022-10-20T17:45:26.348Z,94088.56
2022-10-20T17:50:29.945Z,94092.03
2022-10-20T17:55:34.170Z,94097.91
2022-10-20T18:00:55.552Z,94099.56
2022-10-20T18:06:05.840Z,94111.91
2022-10-20T18:11:11.418Z,94115.97
2022-10-20T18:16:17.528Z,94122.78
2022-10-20T18:21:21.275Z,94123.59
2022-10-20T18:26:25.840Z,94129.16
2022-10-20T18:31:31.552Z,94130.75
2022-10-20T18:36:40.405Z,94132.41
2022-10-20T18:41:50.855Z,94137.53
2022-10-20T18:46:57.859Z,94145.81
2022-10-20T18:52:03.209Z,94150.16
2022-10-20T18:57:06.418Z,94154.91
2022-10-20T19:02:12.563Z,94154.16
2022-10-20T19:07:16.168Z,94154.16
2022-10-20T19:12:19.468Z,94164.75
2022-10-20T19:17:23.771Z,94160.78
2022-10-20T19:22:29.354Z,94174.19
2022-10-20T19:27:33.359Z,94165.88
2022-10-20T19:32:40.405Z,94157.66
2022-10-20T19:37:46.789Z,94175.31
2022-10-20T19:42:50.505Z,94175.72
2022-10-20T19:47:54.976Z,94184.00
2022-10-20T19:52:59.253Z,94188.34
2022-10-20T19:58:04.752Z,94199.78
2022-10-20T20:03:09.107Z,94203.75
2022-10-20T20:08:15.184Z,94203.34
2022-10-20T20:13:18.484Z,94210.47
2022-10-20T20:18:21.522Z,94210.88
2022-10-20T20:23:34.667Z,94208.13
2022-10-20T20:28:44.530Z,94203.81
2022-10-20T20:33:48.467Z,94218.00
2022-10-20T20:38:53.794Z,94216.38
2022-10-20T20:44:04.116Z,94223.41
2022-10-20T20:49:10.188Z,94230.06
2022-10-20T20:54:13.725Z,94226.84
2022-10-20T20:59:17.171Z,94228.75
2022-10-20T21:04:21.546Z,94226.31
2022-10-20T21:09:25.036Z,94230.56
2022-10-20T21:14:28.615Z,94235.16
2022-10-20T21:19:31.542Z,94224.09
2022-10-20T21:24:34.616Z,94223.22
2022-10-20T21:29:37.859Z,94223.88
2022-10-20T21:34:41.251Z,94219.88
2022-10-20T21:39:44.195Z,94217.03
2022-10-20T21:44:47.645Z,94218.09
2022-10-20T21:49:51.767Z,94227.56
2022-10-20T21:54:55.335Z,94234.50
2022-10-20T21:59:59.132Z,94223.81
2022-10-20T22:05:03.531Z,94229.66
2022-10-20T22:10:09.223Z,94225.66
2022-10-20T22:15:13.284Z,94236.59
2022-10-20T22:20:16.986Z,94239.63
2022-10-20T22:25:20.954Z,94230.16
2022-10-20T22:30:24.943Z,94228.47
2022-10-20T22:35:28.894Z,94235.22
2022-10-20T22:40:31.943Z,94240.28
2022-10-20T22:45:37.211Z,94246.59
2022-10-20T22:50:42.821Z,94238.72
2022-10-20T22:55:46.251Z,94248.03
2022-10-20T23:00:49.967Z,94238.97
2022-10-20T23:05:54.265Z,94240.88
2022-10-20T23:10:58.901Z,94236.88
2022-10-20T23:16:03.026Z,94228.56
2022-10-20T23:21:06.845Z,94235.63
2022-10-20T23:26:11.898Z,94238.38
2022-10-20T23:31:17.701Z,94231.19
2022-10-20T23:36:22.299Z,94227.66
2022-10-20T23:41:25.260Z,94236.59
2022-10-20T23:46:32.263Z,94236.66
2022-10-20T23:51:35.586Z,94239.75
2022-10-20T23:56:38.955Z,94238.91
